createdAt,value
2019-03-23T00:00:40.531Z,314.67
2019-03-23T00:01:40.520Z,314.38
2019-03-23T00:02:40.504Z,314.79
2019-03-23T00:03:40.515Z,313.85
2019-03-23T00:04:40.497Z,313.85
2019-03-23T00:05:40.461Z,314.67
2019-03-23T00:06:40.454Z,314.22
2019-03-23T00:07:40.446Z,313.94
2019-03-23T00:08:40.435Z,314.34
2019-03-23T00:09:40.472Z,313.82
2019-03-23T00:10:40.412Z,314.04
2019-03-23T00:11:40.425Z,313.93
2019-03-23T00:12:40.449Z,314.37
2019-03-23T00:13:40.922Z,314.03
2019-03-23T00:14:40.403Z,313.80
2019-03-23T00:15:40.397Z,313.71
2019-03-23T00:16:40.351Z,313.91
2019-03-23T00:17:40.338Z,314.05
2019-03-23T00:18:40.327Z,313.68
2019-03-23T00:19:40.319Z,313.88
2019-03-23T00:20:40.321Z,313.84
2019-03-23T00:21:40.319Z,314.23
2019-03-23T00:22:40.297Z,313.94
2019-03-23T00:23:40.260Z,313.61
2019-03-23T00:24:40.260Z,313.97
2019-03-23T00:25:40.269Z,313.95
2019-03-23T00:26:40.277Z,313.88
2019-03-23T00:27:40.923Z,314.29
2019-03-23T00:28:40.228Z,313.54
2019-03-23T00:29:40.206Z,313.74
2019-03-23T00:30:40.194Z,314.39
2019-03-23T00:31:40.447Z,313.80
2019-03-23T00:32:40.196Z,314.10
2019-03-23T00:33:40.171Z,313.77
2019-03-23T00:34:40.148Z,313.54
2019-03-23T00:35:40.149Z,313.70
2019-03-23T00:36:41.688Z,313.93
2019-03-23T00:37:40.136Z,313.52
2019-03-23T00:38:40.111Z,313.70
2019-03-23T00:39:40.102Z,313.12
2019-03-23T00:40:40.094Z,313.65
2019-03-23T00:41:40.085Z,313.73
2019-03-23T00:42:40.115Z,313.51
2019-03-23T00:43:40.051Z,313.42
2019-03-23T00:44:40.049Z,313.97
2019-03-23T00:45:40.046Z,314.10
2019-03-23T00:46:40.067Z,313.99
2019-03-23T00:47:40.923Z,313.54
2019-03-23T00:48:40.023Z,313.13
2019-03-23T00:49:40.003Z,313.65
2019-03-23T00:50:40.003Z,313.50
2019-03-23T00:51:39.978Z,313.75
2019-03-23T00:52:39.983Z,313.79
2019-03-23T00:53:39.974Z,313.20
2019-03-23T00:54:39.927Z,313.43
2019-03-23T00:55:39.947Z,313.10
2019-03-23T00:56:39.917Z,314.04
2019-03-23T00:57:39.897Z,314.03
2019-03-23T00:58:39.929Z,313.49
2019-03-23T00:59:39.893Z,313.98
2019-03-23T01:00:39.868Z,314.02
2019-03-23T01:01:39.857Z,314.16
2019-03-23T01:02:41.761Z,313.85
2019-03-23T01:03:39.828Z,313.79
2019-03-23T01:04:39.853Z,313.58
2019-03-23T01:05:39.866Z,314.30
2019-03-23T01:06:39.802Z,314.28
2019-03-23T01:07:39.809Z,314.24
2019-03-23T01:08:39.782Z,314.54
2019-03-23T01:09:39.767Z,314.28
2019-03-23T01:10:39.777Z,313.99
2019-03-23T01:11:39.787Z,313.94
2019-03-23T01:12:39.739Z,314.07
2019-03-23T01:13:39.739Z,313.99
2019-03-23T01:14:39.718Z,313.84
2019-03-23T01:15:39.704Z,314.35
2019-03-23T01:16:39.702Z,314.39
2019-03-23T01:17:39.706Z,314.22
2019-03-23T01:18:39.690Z,313.93
2019-03-23T01:19:39.666Z,314.17
2019-03-23T01:20:49.336Z,314.35
2019-03-23T01:21:40.703Z,313.79
2019-03-23T01:22:39.635Z,313.32
2019-03-23T01:23:39.622Z,314.08
2019-03-23T01:24:39.615Z,314.23
2019-03-23T01:25:39.632Z,313.77
2019-03-23T01:26:39.602Z,313.34
2019-03-23T01:27:39.574Z,313.60
2019-03-23T01:28:39.553Z,313.95
2019-03-23T01:29:39.545Z,313.90
2019-03-23T01:30:39.550Z,313.98
2019-03-23T01:31:39.555Z,314.04
2019-03-23T01:32:39.530Z,313.60
2019-03-23T01:33:39.514Z,313.89
2019-03-23T01:34:39.494Z,313.48
2019-03-23T01:35:39.480Z,313.92
2019-03-23T01:36:39.507Z,313.58
2019-03-23T01:37:39.503Z,314.09
2019-03-23T01:38:39.444Z,313.65
2019-03-23T01:39:39.439Z,313.74
2019-03-23T01:40:39.422Z,313.37
2019-03-23T01:41:39.419Z,313.57
2019-03-23T01:42:39.421Z,313.25
2019-03-23T01:43:39.468Z,313.05
2019-03-23T01:44:39.410Z,313.34
2019-03-23T01:45:39.417Z,313.84
2019-03-23T01:46:39.383Z,313.32
2019-03-23T01:47:39.469Z,313.61
2019-03-23T01:48:39.353Z,313.64
2019-03-23T01:49:39.331Z,314.13
2019-03-23T01:50:39.331Z,314.16
2019-03-23T01:51:39.316Z,313.83
2019-03-23T01:52:39.323Z,313.92
2019-03-23T01:53:39.287Z,313.73
2019-03-23T01:54:39.294Z,314.52
2019-03-23T01:55:39.524Z,313.86
2019-03-23T01:56:39.310Z,314.23
2019-03-23T01:57:39.280Z,314.22
2019-03-23T01:58:39.253Z,314.19
2019-03-23T01:59:39.234Z,313.78
2019-03-23T02:00:39.248Z,314.10
2019-03-23T02:01:39.243Z,313.81
2019-03-23T02:02:39.194Z,313.63
2019-03-23T02:03:39.932Z,313.87
2019-03-23T02:04:39.179Z,313.68
2019-03-23T02:05:39.167Z,313.79
2019-03-23T02:06:39.175Z,314.08
2019-03-23T02:07:39.194Z,313.63
2019-03-23T02:08:39.143Z,314.26
2019-03-23T02:09:39.136Z,313.76
2019-03-23T02:10:39.104Z,313.90
2019-03-23T02:11:39.119Z,313.96
2019-03-23T02:12:39.089Z,314.50
2019-03-23T02:13:39.094Z,314.14
2019-03-23T02:14:39.061Z,313.82
2019-03-23T02:15:39.074Z,313.96
2019-03-23T02:16:39.053Z,314.07
2019-03-23T02:17:39.082Z,313.83
2019-03-23T02:18:39.012Z,313.63
2019-03-23T02:19:39.017Z,313.47
2019-03-23T02:20:39.011Z,314.01
2019-03-23T02:21:38.985Z,313.40
2019-03-23T02:22:38.983Z,313.65
2019-03-23T02:23:38.985Z,313.53
2019-03-23T02:24:38.992Z,313.62
2019-03-23T02:25:38.960Z,313.61
2019-03-23T02:26:38.934Z,313.38
2019-03-23T02:27:38.936Z,313.77
2019-03-23T02:28:38.909Z,313.40
2019-03-23T02:29:38.988Z,313.44
2019-03-23T02:30:38.894Z,313.62
2019-03-23T02:31:38.866Z,313.07
2019-03-23T02:32:38.868Z,313.56
2019-03-23T02:33:38.854Z,313.66
2019-03-23T02:34:39.446Z,313.26
2019-03-23T02:35:38.877Z,313.07
2019-03-23T02:36:38.829Z,313.13
2019-03-23T02:37:38.822Z,313.37
2019-03-23T02:38:38.858Z,313.18
2019-03-23T02:39:38.816Z,312.97
2019-03-23T02:40:38.847Z,313.12
2019-03-23T02:41:38.796Z,313.00
2019-03-23T02:42:38.791Z,312.57
2019-03-23T02:43:38.754Z,313.57
2019-03-23T02:44:38.746Z,313.09
2019-03-23T02:45:39.013Z,312.89
2019-03-23T02:46:38.716Z,312.94
2019-03-23T02:47:38.706Z,313.37
2019-03-23T02:48:38.693Z,313.16
2019-03-23T02:49:38.678Z,313.00
2019-03-23T02:50:38.660Z,313.03
2019-03-23T02:51:39.869Z,313.53
2019-03-23T02:52:38.639Z,313.01
2019-03-23T02:53:38.628Z,313.13
2019-03-23T02:54:38.626Z,313.65
2019-03-23T02:55:38.643Z,313.72
2019-03-23T02:56:38.602Z,313.45
2019-03-23T02:57:38.605Z,313.75
2019-03-23T02:58:38.584Z,313.36
2019-03-23T02:59:38.573Z,313.78
2019-03-23T03:00:38.565Z,313.56
2019-03-23T03:01:38.571Z,313.76
2019-03-23T03:02:38.528Z,313.56
2019-03-23T03:03:38.532Z,313.83
2019-03-23T03:04:38.499Z,313.38
2019-03-23T03:05:38.492Z,313.43
2019-03-23T03:06:38.541Z,313.68
2019-03-23T03:07:42.268Z,313.62
2019-03-23T03:08:38.515Z,313.74
2019-03-23T03:09:38.458Z,313.87
2019-03-23T03:10:38.449Z,313.64
2019-03-23T03:11:38.462Z,314.22
2019-03-23T03:12:38.443Z,314.11
2019-03-23T03:13:38.451Z,314.12
2019-03-23T03:14:38.394Z,313.86
2019-03-23T03:15:38.394Z,313.55
2019-03-23T03:16:38.373Z,313.95
2019-03-23T03:17:38.387Z,314.16
2019-03-23T03:18:38.381Z,313.88
2019-03-23T03:19:38.384Z,313.75
2019-03-23T03:20:38.351Z,313.59
2019-03-23T03:21:38.341Z,314.10
2019-03-23T03:22:38.344Z,314.20
2019-03-23T03:23:38.315Z,313.16
2019-03-23T03:24:38.291Z,314.06
2019-03-23T03:25:38.319Z,314.17
2019-03-23T03:26:38.310Z,313.66
2019-03-23T03:27:38.266Z,313.46
2019-03-23T03:28:38.277Z,313.61
2019-03-23T03:29:38.250Z,313.97
2019-03-23T03:30:38.280Z,313.70
2019-03-23T03:31:38.256Z,313.83
2019-03-23T03:32:38.246Z,313.46
2019-03-23T03:33:38.215Z,313.43
2019-03-23T03:34:38.217Z,312.82
2019-03-23T03:35:38.171Z,313.64
2019-03-23T03:36:38.158Z,313.27
2019-03-23T03:37:38.159Z,313.19
2019-03-23T03:38:38.153Z,312.76
2019-03-23T03:39:38.171Z,313.20
2019-03-23T03:40:38.127Z,313.86
2019-03-23T03:41:38.123Z,313.63
2019-03-23T03:42:38.106Z,313.62
2019-03-23T03:43:38.086Z,313.94
2019-03-23T03:44:38.108Z,313.33
2019-03-23T03:45:38.069Z,313.04
2019-03-23T03:46:38.049Z,313.09
2019-03-23T03:47:41.014Z,312.89
2019-03-23T03:48:38.027Z,313.56
2019-03-23T03:49:38.010Z,313.66
2019-03-23T03:50:38.039Z,313.52
2019-03-23T03:51:38.007Z,313.53
2019-03-23T03:52:38.001Z,313.62
2019-03-23T03:53:38.065Z,314.04
2019-03-23T03:54:37.965Z,313.36
2019-03-23T03:55:37.968Z,313.90
2019-03-23T03:56:37.945Z,314.30
2019-03-23T03:57:37.928Z,313.46
2019-03-23T03:58:37.954Z,313.35
2019-03-23T03:59:37.924Z,313.95
2019-03-23T04:00:37.922Z,313.66
2019-03-23T04:01:37.893Z,313.77
2019-03-23T04:02:37.904Z,313.62
2019-03-23T04:03:37.872Z,313.81
2019-03-23T04:04:37.855Z,313.50
2019-03-23T04:05:37.863Z,313.70
2019-03-23T04:06:37.840Z,313.49
2019-03-23T04:07:37.815Z,313.39
2019-03-23T04:08:37.815Z,313.68
2019-03-23T04:09:40.332Z,313.70
2019-03-23T04:10:37.818Z,313.87
2019-03-23T04:11:37.783Z,313.91
2019-03-23T04:12:37.774Z,313.62
2019-03-23T04:13:37.758Z,313.94
2019-03-23T04:14:37.749Z,314.03
2019-03-23T04:15:37.781Z,313.93
2019-03-23T04:16:37.735Z,313.93
2019-03-23T04:17:37.720Z,314.25
2019-03-23T04:18:37.704Z,313.75
2019-03-23T04:19:37.696Z,313.79
2019-03-23T04:20:37.680Z,313.40
2019-03-23T04:21:37.685Z,313.57
2019-03-23T04:22:37.692Z,314.15
2019-03-23T04:23:37.658Z,313.62
2019-03-23T04:24:37.642Z,313.15
2019-03-23T04:25:37.641Z,313.90
2019-03-23T04:26:39.276Z,313.55
2019-03-23T04:27:37.624Z,313.78
2019-03-23T04:28:37.601Z,313.60
2019-03-23T04:29:37.653Z,313.63
2019-03-23T04:30:37.573Z,314.14
2019-03-23T04:31:37.566Z,313.75
2019-03-23T04:32:37.570Z,313.61
2019-03-23T04:33:37.555Z,313.74
2019-03-23T04:34:37.534Z,313.48
2019-03-23T04:35:37.526Z,313.56
2019-03-23T04:36:37.507Z,313.81
2019-03-23T04:37:37.505Z,313.63
2019-03-23T04:38:37.497Z,313.53
2019-03-23T04:39:37.476Z,313.87
2019-03-23T04:40:37.458Z,313.83
2019-03-23T04:41:37.446Z,313.72
2019-03-23T04:42:37.445Z,313.80
2019-03-23T04:43:37.466Z,313.67
2019-03-23T04:44:37.417Z,313.50
2019-03-23T04:45:37.419Z,313.38
2019-03-23T04:46:37.397Z,313.29
2019-03-23T04:47:37.423Z,313.36
2019-03-23T04:48:37.401Z,313.30
2019-03-23T04:49:37.388Z,313.66
2019-03-23T04:50:37.363Z,313.26
2019-03-23T04:51:37.355Z,313.18
2019-03-23T04:52:37.323Z,313.21
2019-03-23T04:53:37.311Z,313.27
2019-03-23T04:54:38.953Z,313.84
2019-03-23T04:55:37.323Z,313.75
2019-03-23T04:56:37.286Z,313.71
2019-03-23T04:57:37.280Z,313.52
2019-03-23T04:58:37.256Z,313.26
2019-03-23T04:59:37.238Z,313.41
2019-03-23T05:00:37.271Z,313.72
2019-03-23T05:01:37.239Z,313.92
2019-03-23T05:02:37.243Z,314.01
2019-03-23T05:03:37.210Z,313.92
2019-03-23T05:04:37.199Z,313.84
2019-03-23T05:05:37.178Z,313.92
2019-03-23T05:06:37.199Z,314.01
2019-03-23T05:07:37.214Z,313.71
2019-03-23T05:08:37.173Z,313.92
2019-03-23T05:09:37.148Z,313.58
2019-03-23T05:10:37.129Z,313.65
2019-03-23T05:11:37.149Z,314.22
2019-03-23T05:12:37.113Z,313.33
2019-03-23T05:13:37.094Z,313.80
2019-03-23T05:14:37.093Z,314.02
2019-03-23T05:15:37.082Z,313.48
2019-03-23T05:16:37.072Z,313.45
2019-03-23T05:17:37.083Z,314.04
2019-03-23T05:18:37.041Z,313.96
2019-03-23T05:19:37.024Z,313.82
2019-03-23T05:20:37.026Z,314.07
2019-03-23T05:21:37.014Z,313.24
2019-03-23T05:22:37.024Z,313.76
2019-03-23T05:23:36.996Z,313.92
2019-03-23T05:24:36.985Z,313.91
2019-03-23T05:25:36.971Z,313.86
2019-03-23T05:26:36.965Z,313.81
2019-03-23T05:27:36.964Z,313.87
2019-03-23T05:28:36.971Z,313.94
2019-03-23T05:29:36.940Z,313.71
2019-03-23T05:30:36.933Z,313.78
2019-03-23T05:31:36.896Z,313.67
2019-03-23T05:32:36.890Z,313.72
2019-03-23T05:33:36.874Z,313.58
2019-03-23T05:34:36.907Z,314.00
2019-03-23T05:35:36.864Z,313.64
2019-03-23T05:36:36.841Z,313.76
2019-03-23T05:37:36.839Z,314.04
2019-03-23T05:38:44.218Z,313.59
2019-03-23T05:39:37.834Z,313.51
2019-03-23T05:40:36.804Z,314.19
2019-03-23T05:41:36.801Z,314.04
2019-03-23T05:42:36.777Z,313.61
2019-03-23T05:43:36.769Z,314.00
2019-03-23T05:44:36.783Z,314.30
2019-03-23T05:45:36.747Z,313.61
2019-03-23T05:46:36.748Z,314.35
2019-03-23T05:47:36.741Z,313.80
2019-03-23T05:48:36.726Z,314.01
2019-03-23T05:49:36.721Z,314.25
2019-03-23T05:50:36.718Z,314.08
2019-03-23T05:51:36.676Z,314.11
2019-03-23T05:52:36.676Z,313.84
2019-03-23T05:53:36.667Z,314.13
2019-03-23T05:54:36.640Z,314.00
2019-03-23T05:55:36.667Z,314.01
2019-03-23T05:56:36.628Z,314.25
2019-03-23T05:57:36.615Z,314.17
2019-03-23T05:58:36.615Z,314.51
2019-03-23T05:59:36.602Z,314.59
2019-03-23T06:00:36.631Z,314.24
2019-03-23T06:01:36.575Z,314.34
2019-03-23T06:02:36.556Z,314.86
2019-03-23T06:03:36.543Z,314.32
2019-03-23T06:04:36.533Z,314.73
2019-03-23T06:05:36.531Z,314.42
2019-03-23T06:06:36.551Z,314.46
2019-03-23T06:07:36.524Z,314.80
2019-03-23T06:08:36.488Z,314.60
2019-03-23T06:09:36.480Z,315.11
2019-03-23T06:10:36.493Z,314.97
2019-03-23T06:11:36.489Z,315.36
2019-03-23T06:12:36.464Z,314.70
2019-03-23T06:13:36.448Z,314.70
2019-03-23T06:14:36.432Z,315.03
2019-03-23T06:15:36.421Z,315.04
2019-03-23T06:16:36.442Z,315.12
2019-03-23T06:17:36.390Z,315.25
2019-03-23T06:18:36.388Z,314.81
2019-03-23T06:19:36.384Z,315.67
2019-03-23T06:20:36.376Z,315.34
2019-03-23T06:21:36.359Z,315.29
2019-03-23T06:22:36.354Z,316.11
2019-03-23T06:23:36.349Z,315.77
2019-03-23T06:24:36.321Z,315.49
2019-03-23T06:25:36.323Z,315.70
2019-03-23T06:26:36.301Z,316.43
2019-03-23T06:27:36.321Z,316.49
2019-03-23T06:28:36.320Z,316.65
2019-03-23T06:29:36.275Z,316.18
2019-03-23T06:30:36.258Z,316.49
2019-03-23T06:31:36.253Z,316.64
2019-03-23T06:32:36.238Z,315.95
2019-03-23T06:33:36.276Z,316.31
2019-03-23T06:34:36.212Z,316.67
2019-03-23T06:35:36.195Z,316.42
2019-03-23T06:36:36.198Z,316.48
2019-03-23T06:37:36.171Z,315.85
2019-03-23T06:38:36.194Z,315.76
2019-03-23T06:39:36.167Z,315.64
2019-03-23T06:40:36.146Z,315.58
2019-03-23T06:41:36.134Z,315.74
2019-03-23T06:42:36.124Z,314.92
2019-03-23T06:43:36.163Z,314.52
2019-03-23T06:44:36.106Z,314.76
2019-03-23T06:45:36.097Z,314.70
2019-03-23T06:46:36.095Z,314.73
2019-03-23T06:47:36.069Z,314.52
2019-03-23T06:48:36.051Z,314.30
2019-03-23T06:49:36.063Z,314.80
2019-03-23T06:50:36.038Z,314.13
2019-03-23T06:51:36.029Z,314.40
2019-03-23T06:52:36.018Z,314.23
2019-03-23T06:53:36.004Z,313.90
2019-03-23T06:54:36.011Z,314.03
2019-03-23T06:55:35.977Z,314.28
2019-03-23T06:56:35.971Z,314.34
2019-03-23T06:57:35.970Z,313.54
2019-03-23T06:58:35.956Z,314.17
2019-03-23T06:59:35.943Z,313.55
2019-03-23T07:00:35.918Z,314.62
2019-03-23T07:01:35.912Z,314.47
2019-03-23T07:02:35.933Z,314.48
2019-03-23T07:03:35.891Z,314.60
2019-03-23T07:04:35.899Z,313.70
2019-03-23T07:05:35.868Z,313.45
2019-03-23T07:06:35.853Z,312.82
2019-03-23T07:07:35.875Z,312.87
2019-03-23T07:08:35.823Z,313.08
2019-03-23T07:09:35.854Z,313.82
2019-03-23T07:10:35.827Z,314.22
2019-03-23T07:11:35.806Z,313.84
2019-03-23T07:12:35.787Z,314.25
2019-03-23T07:13:35.779Z,313.47
2019-03-23T07:14:35.790Z,313.49
2019-03-23T07:15:35.760Z,314.26
2019-03-23T07:16:35.823Z,313.70
2019-03-23T07:17:35.799Z,314.07
2019-03-23T07:18:35.726Z,313.16
2019-03-23T07:19:35.744Z,314.12
2019-03-23T07:20:35.701Z,312.87
2019-03-23T07:21:35.698Z,313.64
2019-03-23T07:22:35.708Z,313.39
2019-03-23T07:23:35.706Z,314.31
2019-03-23T07:24:35.665Z,312.18
2019-03-23T07:25:35.653Z,313.59
2019-03-23T07:26:35.635Z,313.60
2019-03-23T07:27:35.620Z,314.12
2019-03-23T07:28:35.619Z,314.05
2019-03-23T07:29:35.649Z,313.90
2019-03-23T07:30:35.591Z,313.62
2019-03-23T07:31:35.583Z,313.33
2019-03-23T07:32:35.584Z,311.34
2019-03-23T07:33:35.559Z,312.72
2019-03-23T07:34:35.549Z,312.76
2019-03-23T07:35:35.655Z,313.30
2019-03-23T07:36:35.530Z,311.74
2019-03-23T07:37:35.526Z,312.23
2019-03-23T07:38:35.493Z,313.55
2019-03-23T07:39:35.493Z,313.80
2019-03-23T07:40:35.476Z,313.82
2019-03-23T07:41:35.482Z,312.93
2019-03-23T07:42:35.466Z,312.82
2019-03-23T07:43:35.484Z,313.00
2019-03-23T07:44:35.437Z,312.46
2019-03-23T07:45:35.435Z,312.87
2019-03-23T07:46:35.666Z,313.90
2019-03-23T07:47:35.407Z,313.08
2019-03-23T07:48:35.399Z,312.61
2019-03-23T07:49:35.384Z,313.05
2019-03-23T07:50:35.366Z,314.27
2019-03-23T07:51:35.357Z,311.04
2019-03-23T07:52:35.360Z,312.99
2019-03-23T07:53:35.329Z,312.23
2019-03-23T07:54:35.338Z,313.51
2019-03-23T07:55:35.317Z,311.82
2019-03-23T07:56:35.332Z,314.25
2019-03-23T07:57:35.297Z,312.28
2019-03-23T07:58:35.291Z,313.56
2019-03-23T07:59:35.267Z,311.95
2019-03-23T08:00:35.310Z,313.62
2019-03-23T08:01:35.289Z,312.75
2019-03-23T08:02:35.234Z,312.85
2019-03-23T08:03:35.238Z,311.29
2019-03-23T08:04:35.221Z,312.93
2019-03-23T08:05:35.205Z,312.59
2019-03-23T08:06:35.206Z,311.83
2019-03-23T08:07:35.233Z,313.60
2019-03-23T08:08:35.174Z,311.75
2019-03-23T08:09:37.832Z,309.86
2019-03-23T08:10:35.150Z,312.04
2019-03-23T08:11:35.130Z,310.29
2019-03-23T08:12:35.128Z,312.85
2019-03-23T08:13:35.144Z,310.70
2019-03-23T08:14:36.131Z,309.13
2019-03-23T08:15:35.108Z,315.80
2019-03-23T08:16:35.079Z,312.15
2019-03-23T08:17:35.069Z,313.25
2019-03-23T08:18:35.097Z,309.34
2019-03-23T08:19:35.058Z,313.34
2019-03-23T08:20:35.043Z,310.98
2019-03-23T08:21:35.052Z,311.18
2019-03-23T08:22:35.000Z,310.37
2019-03-23T08:23:35.022Z,307.66
2019-03-23T08:24:34.990Z,311.52
2019-03-23T08:25:34.987Z,310.97
2019-03-23T08:26:34.984Z,313.35
2019-03-23T08:27:35.015Z,313.88
2019-03-23T08:28:35.016Z,313.08
2019-03-23T08:29:35.381Z,312.76
2019-03-23T08:30:34.922Z,309.59
2019-03-23T08:31:35.078Z,308.85
2019-03-23T08:32:34.924Z,310.97
2019-03-23T08:33:34.924Z,309.95
2019-03-23T08:34:34.932Z,309.51
2019-03-23T08:35:34.882Z,311.98
2019-03-23T08:36:34.869Z,311.50
2019-03-23T08:37:34.851Z,312.27
2019-03-23T08:38:34.857Z,312.08
2019-03-23T08:39:34.857Z,309.16
2019-03-23T08:40:35.916Z,306.04
2019-03-23T08:41:34.847Z,309.86
2019-03-23T08:42:35.058Z,308.95
2019-03-23T08:43:34.793Z,311.51
2019-03-23T08:44:34.780Z,314.13
2019-03-23T08:45:34.763Z,311.26
2019-03-23T08:46:34.786Z,312.05
2019-03-23T08:47:34.750Z,305.77
2019-03-23T08:48:34.727Z,307.51
2019-03-23T08:49:34.725Z,307.48
2019-03-23T08:50:34.736Z,308.90
2019-03-23T08:51:34.715Z,309.31
2019-03-23T08:52:34.723Z,305.17
2019-03-23T08:53:34.690Z,308.91
2019-03-23T08:54:34.673Z,310.79
2019-03-23T08:55:34.656Z,307.33
2019-03-23T08:56:34.679Z,305.51
2019-03-23T08:57:34.671Z,304.95
2019-03-23T08:58:34.633Z,306.83
2019-03-23T08:59:34.617Z,311.62
2019-03-23T09:00:34.608Z,308.93
2019-03-23T09:01:34.610Z,303.54
2019-03-23T09:02:34.601Z,308.03
2019-03-23T09:03:34.619Z,305.59
2019-03-23T09:04:36.477Z,308.79
2019-03-23T09:05:34.562Z,305.42
2019-03-23T09:06:34.558Z,307.52
2019-03-23T09:07:34.543Z,306.84
2019-03-23T09:08:34.540Z,307.03
2019-03-23T09:09:34.548Z,310.82
2019-03-23T09:10:34.503Z,304.54
2019-03-23T09:11:34.482Z,303.48
2019-03-23T09:12:34.492Z,301.27
2019-03-23T09:13:40.609Z,309.93
2019-03-23T09:14:35.501Z,302.23
2019-03-23T09:15:34.462Z,301.03
2019-03-23T09:16:34.456Z,310.86
2019-03-23T09:17:34.444Z,308.92
2019-03-23T09:18:34.443Z,301.65
2019-03-23T09:19:34.409Z,305.13
2019-03-23T09:20:34.444Z,304.99
2019-03-23T09:21:34.393Z,295.57
2019-03-23T09:22:34.382Z,308.58
2019-03-23T09:23:34.381Z,308.41
2019-03-23T09:24:34.355Z,305.28
2019-03-23T09:25:34.373Z,302.59
2019-03-23T09:26:34.355Z,300.34
2019-03-23T09:27:34.361Z,308.45
2019-03-23T09:28:34.328Z,304.39
2019-03-23T09:29:34.321Z,308.46
2019-03-23T09:30:34.294Z,305.12
2019-03-23T09:31:34.306Z,302.90
2019-03-23T09:32:34.277Z,308.42
2019-03-23T09:33:34.267Z,307.94
2019-03-23T09:34:34.290Z,311.60
2019-03-23T09:35:34.315Z,301.95
2019-03-23T09:36:34.236Z,304.79
2019-03-23T09:37:38.319Z,298.20
2019-03-23T09:38:34.232Z,301.68
2019-03-23T09:39:34.215Z,299.99
2019-03-23T09:40:34.205Z,307.60
2019-03-23T09:41:34.192Z,311.31
2019-03-23T09:42:34.186Z,310.77
2019-03-23T09:43:34.168Z,309.80
2019-03-23T09:44:34.179Z,304.46
2019-03-23T09:45:34.146Z,308.21
2019-03-23T09:46:34.141Z,310.16
2019-03-23T09:47:34.132Z,308.55
2019-03-23T09:48:34.141Z,304.17
2019-03-23T09:49:34.103Z,310.19
2019-03-23T09:50:34.085Z,298.61
2019-03-23T09:51:34.086Z,303.54
2019-03-23T09:52:34.085Z,301.10
2019-03-23T09:53:34.106Z,308.27
2019-03-23T09:54:34.060Z,305.01
2019-03-23T09:55:34.049Z,300.28
2019-03-23T09:56:34.032Z,305.70
2019-03-23T09:57:34.026Z,304.28
2019-03-23T09:58:34.035Z,300.10
2019-03-23T09:59:34.037Z,299.79
2019-03-23T10:00:34.014Z,306.91
2019-03-23T10:01:34.034Z,304.58
2019-03-23T10:02:33.974Z,305.56
2019-03-23T10:03:33.981Z,307.28
2019-03-23T10:04:33.950Z,308.01
2019-03-23T10:05:33.936Z,303.37
2019-03-23T10:06:33.947Z,303.07
2019-03-23T10:07:33.956Z,305.45
2019-03-23T10:08:33.915Z,301.01
2019-03-23T10:09:33.938Z,305.00
2019-03-23T10:10:33.899Z,305.05
2019-03-23T10:11:33.894Z,301.13
2019-03-23T10:12:33.931Z,305.80
2019-03-23T10:13:33.894Z,304.92
2019-03-23T10:14:33.846Z,301.37
2019-03-23T10:15:33.874Z,300.95
2019-03-23T10:16:33.833Z,305.86
2019-03-23T10:17:33.832Z,302.55
2019-03-23T10:18:33.826Z,300.22
2019-03-23T10:19:33.810Z,306.45
2019-03-23T10:20:33.802Z,306.42
2019-03-23T10:21:33.807Z,304.56
2019-03-23T10:22:33.765Z,302.62
2019-03-23T10:23:33.796Z,298.06
2019-03-23T10:24:33.768Z,307.87
2019-03-23T10:25:33.764Z,299.93
2019-03-23T10:26:33.745Z,305.34
2019-03-23T10:27:33.738Z,302.90
2019-03-23T10:28:33.714Z,296.67
2019-03-23T10:29:33.715Z,309.67
2019-03-23T10:30:33.774Z,306.69
2019-03-23T10:31:33.701Z,306.92
2019-03-23T10:32:33.702Z,304.76
2019-03-23T10:33:33.689Z,301.02
2019-03-23T10:34:33.657Z,309.35
2019-03-23T10:35:33.645Z,307.03
2019-03-23T10:36:33.667Z,310.69
2019-03-23T10:37:33.679Z,301.58
2019-03-23T10:38:33.632Z,302.18
2019-03-23T10:39:33.612Z,312.74
2019-03-23T10:40:33.590Z,306.22
2019-03-23T10:41:33.581Z,309.40
2019-03-23T10:42:33.614Z,303.95
2019-03-23T10:43:33.577Z,309.87
2019-03-23T10:44:33.571Z,304.25
2019-03-23T10:45:40.073Z,302.79
2019-03-23T10:46:34.549Z,305.57
2019-03-23T10:47:33.646Z,307.02
2019-03-23T10:48:33.530Z,303.41
2019-03-23T10:49:33.516Z,306.39
2019-03-23T10:50:33.510Z,308.06
2019-03-23T10:51:33.514Z,300.60
2019-03-23T10:52:33.487Z,309.05
2019-03-23T10:53:33.490Z,305.30
2019-03-23T10:54:33.450Z,307.04
2019-03-23T10:55:33.443Z,307.05
2019-03-23T10:56:33.489Z,302.52
2019-03-23T10:57:33.436Z,304.50
2019-03-23T10:58:33.412Z,311.64
2019-03-23T10:59:33.413Z,298.82
2019-03-23T11:00:33.401Z,298.32
2019-03-23T11:01:33.389Z,311.07
2019-03-23T11:02:33.402Z,308.48
2019-03-23T11:03:33.401Z,309.02
2019-03-23T11:04:33.360Z,312.31
2019-03-23T11:05:33.355Z,301.87
2019-03-23T11:06:33.334Z,310.85
2019-03-23T11:07:33.330Z,313.70
2019-03-23T11:08:33.327Z,302.98
2019-03-23T11:09:33.301Z,308.25
2019-03-23T11:10:41.574Z,306.65
2019-03-23T11:11:34.289Z,304.64
2019-03-23T11:12:33.279Z,302.38
2019-03-23T11:13:33.296Z,307.75
2019-03-23T11:14:33.265Z,309.98
2019-03-23T11:15:33.256Z,301.50
2019-03-23T11:16:33.256Z,313.22
2019-03-23T11:17:33.244Z,314.15
2019-03-23T11:18:33.215Z,308.46
2019-03-23T11:19:33.241Z,311.70
2019-03-23T11:20:33.197Z,301.28
2019-03-23T11:21:33.209Z,305.50
2019-03-23T11:22:33.192Z,301.76
2019-03-23T11:23:33.189Z,300.22
2019-03-23T11:24:33.190Z,308.13
2019-03-23T11:25:33.158Z,304.02
2019-03-23T11:26:33.139Z,308.06
2019-03-23T11:27:33.141Z,307.44
2019-03-23T11:28:33.135Z,304.58
2019-03-23T11:29:33.162Z,302.66
2019-03-23T11:30:33.095Z,305.52
2019-03-23T11:31:33.091Z,310.52
2019-03-23T11:32:33.101Z,304.14
2019-03-23T11:33:33.070Z,304.58
2019-03-23T11:34:33.076Z,305.44
2019-03-23T11:35:33.080Z,300.04
2019-03-23T11:36:33.044Z,304.71
2019-03-23T11:37:33.105Z,304.93
2019-03-23T11:38:33.067Z,311.15
2019-03-23T11:39:33.010Z,305.86
2019-03-23T11:40:33.027Z,307.94
2019-03-23T11:41:33.015Z,303.49
2019-03-23T11:42:33.001Z,306.94
2019-03-23T11:43:32.984Z,306.22
2019-03-23T11:44:32.966Z,305.28
2019-03-23T11:45:32.956Z,302.09
2019-03-23T11:46:32.975Z,305.20
2019-03-23T11:47:32.938Z,307.75
2019-03-23T11:48:32.952Z,307.18
2019-03-23T11:49:32.922Z,300.68
2019-03-23T11:50:32.918Z,303.26
2019-03-23T11:51:32.893Z,309.77
2019-03-23T11:52:32.888Z,309.71
2019-03-23T11:53:32.874Z,303.00
2019-03-23T11:54:32.905Z,314.74
2019-03-23T11:55:32.882Z,309.42
2019-03-23T11:56:32.842Z,306.12
2019-03-23T11:57:32.839Z,309.80
2019-03-23T11:58:32.843Z,309.53
2019-03-23T11:59:32.835Z,304.17
2019-03-23T12:00:32.814Z,302.75
2019-03-23T12:01:32.807Z,309.78
2019-03-23T12:02:32.782Z,302.05
2019-03-23T12:03:32.804Z,311.82
2019-03-23T12:04:32.757Z,308.76
2019-03-23T12:05:32.756Z,304.48
2019-03-23T12:06:32.751Z,310.01
2019-03-23T12:07:32.740Z,304.88
2019-03-23T12:08:32.728Z,306.39
2019-03-23T12:09:32.740Z,307.01
2019-03-23T12:10:32.700Z,309.70
2019-03-23T12:11:32.693Z,309.19
2019-03-23T12:12:32.685Z,307.02
2019-03-23T12:13:32.670Z,309.10
2019-03-23T12:14:32.700Z,307.41
2019-03-23T12:15:32.676Z,308.26
2019-03-23T12:16:32.654Z,303.81
2019-03-23T12:17:32.629Z,300.77
2019-03-23T12:18:32.653Z,306.03
2019-03-23T12:19:32.619Z,309.64
2019-03-23T12:20:32.628Z,306.88
2019-03-23T12:21:32.603Z,307.30
2019-03-23T12:22:32.573Z,309.01
2019-03-23T12:23:32.567Z,308.66
2019-03-23T12:24:32.561Z,310.51
2019-03-23T12:25:32.563Z,307.16
2019-03-23T12:26:32.542Z,308.54
2019-03-23T12:27:32.533Z,307.03
2019-03-23T12:28:32.539Z,311.78